Time;durP1;ratioP1;P1;durP2;ratioP2;P2;SDS_P1;SDS_P2;PMS_P1;PMS_P2;Temp;Humidity;BMP_temperature;BMP_pressure;BME280_temperature;BME280_humidity;BME280_pressure;Samples;Min_cycle;Max_cycle;Signal;HPM_P1;HPM_P2
2022/03/08 00:04:35;;;;;;;2.50;2.10;;;;;;;4.17;28.06;101408.81;10307016;28;20292;-85
2022/03/08 00:09:37;;;;;;;2.30;2.07;;;;;;;4.23;28.15;101402.94;10322292;28;20837;-85
2022/03/08 00:14:39;;;;;;;4.70;2.10;;;;;;;3.97;28.10;101395.66;10332140;28;20260;-84
2022/03/08 00:19:45;;;;;;;4.50;2.60;;;;;;;3.63;29.16;101390.53;10313286;28;20606;-84
2022/03/08 00:24:48;;;;;;;3.63;2.20;;;;;;;3.63;28.78;101373.75;10261214;28;1563643;-85
2022/03/08 00:29:50;;;;;;;2.87;2.40;;;;;;;3.47;29.04;101386.00;10320027;28;20210;-85
2022/03/08 00:34:52;;;;;;;3.43;2.10;;;;;;;3.62;29.13;101377.66;10340100;28;20225;-85
2022/03/08 00:39:55;;;;;;;2.77;2.40;;;;;;;3.64;28.90;101363.41;10305905;28;20240;-85
2022/03/08 00:44:57;;;;;;;2.57;2.37;;;;;;;3.72;29.02;101364.84;10349957;28;20866;-85
2022/03/08 00:50:00;;;;;;;3.70;2.50;;;;;;;3.71;29.21;101361.22;10301653;28;20206;-84
2022/03/08 00:55:05;;;;;;;2.87;2.23;;;;;;;3.27;29.74;101358.00;10314207;28;20214;-84
2022/03/08 01:00:09;;;;;;;3.50;2.93;;;;;;;3.45;29.66;101353.88;10340923;28;20202;-85
2022/03/08 01:05:12;;;;;;;2.30;2.10;;;;;;;3.54;29.15;101341.88;10313077;28;20245;-84
2022/03/08 01:10:18;;;;;;;2.67;2.40;;;;;;;3.60;29.13;101335.16;10305988;28;20734;-84
2022/03/08 01:15:24;;;;;;;2.47;2.27;;;;;;;3.53;29.50;101340.19;10296822;28;20194;-85
2022/03/08 01:20:26;;;;;;;3.73;2.20;;;;;;;3.47;29.56;101341.28;10330800;28;20706;-84
2022/03/08 01:25:29;;;;;;;3.00;2.70;;;;;;;3.50;28.90;101329.56;10322628;28;20280;-84
2022/03/08 01:30:31;;;;;;;3.00;2.40;;;;;;;3.30;29.80;101329.53;10318273;28;20215;-85
2022/03/08 01:35:34;;;;;;;2.40;2.20;;;;;;;3.36;29.72;101327.56;10300923;28;20909;-85
2022/03/08 01:40:36;;;;;;;3.57;2.60;;;;;;;3.16;30.25;101323.56;10320595;28;20261;-85
2022/03/08 01:45:38;;;;;;;4.40;2.77;;;;;;;3.06;30.29;101312.38;10317654;28;20217;-85
2022/03/08 01:50:41;;;;;;;2.77;2.57;;;;;;;3.48;29.82;101309.41;10320234;28;20210;-85
2022/03/08 01:55:43;;;;;;;2.43;2.13;;;;;;;3.43;29.49;101317.81;10298238;28;20295;-85
2022/03/08 02:00:51;;;;;;;4.53;3.00;;;;;;;3.29;29.79;101308.28;10302221;28;20213;-85
2022/03/08 02:05:53;;;;;;;3.80;2.90;;;;;;;3.63;29.47;101301.06;10317028;28;20202;-85
2022/03/08 02:10:56;;;;;;;4.43;3.10;;;;;;;2.74;31.07;101301.34;10313985;28;20556;-84
2022/03/08 02:15:58;;;;;;;7.43;3.17;;;;;;;3.10;30.25;101290.28;10300743;28;20233;-84
2022/03/08 02:21:05;;;;;;;3.10;2.77;;;;;;;3.06;30.48;101291.97;10314531;28;20221;-85
2022/03/08 02:26:07;;;;;;;4.47;2.73;;;;;;;2.98;30.84;101285.78;10302347;28;20233;-85
2022/03/08 02:31:09;;;;;;;3.23;2.83;;;;;;;2.82;31.18;101300.81;10346177;28;20683;-84
2022/03/08 02:36:12;;;;;;;4.53;2.93;;;;;;;2.72;31.70;101292.38;10338741;28;20205;-86
2022/03/08 02:41:14;;;;;;;4.50;3.30;;;;;;;2.98;31.01;101296.97;10334599;28;20749;-85
2022/03/08 02:46:16;;;;;;;5.23;3.53;;;;;;;2.62;31.45;101295.97;10297987;28;20210;-86
2022/03/08 02:51:20;;;;;;;4.00;3.47;;;;;;;2.85;31.39;101303.06;10304096;28;20201;-86
2022/03/08 02:56:22;;;;;;;4.30;3.90;;;;;;;2.72;31.78;101306.34;10346432;28;20314;-86
2022/03/08 03:01:25;;;;;;;5.77;3.80;;;;;;;2.65;31.87;101300.19;10371851;28;20699;-86
2022/03/08 03:06:28;;;;;;;5.37;3.97;;;;;;;2.34;32.14;101298.31;10361606;28;20193;-86
2022/03/08 03:11:30;;;;;;;4.00;3.60;;;;;;;2.38;32.13;101291.09;10360798;28;20267;-85
2022/03/08 03:16:32;;;;;;;4.47;3.90;;;;;;;2.32;32.31;101289.38;10362288;28;20263;-86
2022/03/08 03:21:35;;;;;;;7.27;4.20;;;;;;;2.45;32.40;101284.16;10361803;28;20255;-86
2022/03/08 03:26:37;;;;;;;7.33;3.90;;;;;;;2.14;32.78;101283.16;10360401;28;20229;-87
2022/03/08 03:31:40;;;;;;;5.63;3.80;;;;;;;2.17;32.31;101271.44;10361172;28;20205;-87
2022/03/08 03:36:42;;;;;;;5.87;4.00;;;;;;;2.47;32.57;101272.72;10343915;28;20244;-86
2022/03/08 03:41:44;;;;;;;4.97;3.53;;;;;;;2.09;32.95;101265.53;10335777;28;20221;-86
2022/03/08 03:46:48;;;;;;;5.80;4.27;;;;;;;2.53;32.28;101263.28;10360435;28;20220;-86
2022/03/08 03:51:51;;;;;;;7.70;4.40;;;;;;;2.45;32.43;101255.41;10330274;28;20205;-87
2022/03/08 03:56:53;;;;;;;6.37;4.20;;;;;;;2.18;32.61;101261.13;10365122;28;20209;-87
2022/03/08 04:01:56;;;;;;;5.53;4.47;;;;;;;2.43;32.42;101257.66;10353826;28;20224;-86
2022/03/08 04:06:58;;;;;;;5.83;4.27;;;;;;;2.30;32.80;101264.56;10335446;28;20204;-85
2022/03/08 04:12:00;;;;;;;4.67;4.20;;;;;;;1.93;33.01;101266.53;10316996;28;20549;-86
2022/03/08 04:17:04;;;;;;;5.50;4.10;;;;;;;1.81;33.37;101259.16;10314931;28;20259;-86
2022/03/08 04:22:06;;;;;;;5.30;4.03;;;;;;;2.18;33.06;101255.53;10316239;28;20527;-86
2022/03/08 04:27:09;;;;;;;5.17;3.90;;;;;;;2.44;32.58;101253.72;10313090;28;20246;-86
2022/03/08 04:32:11;;;;;;;6.70;4.27;;;;;;;2.28;32.85;101252.84;10312411;28;20591;-87
2022/03/08 04:37:13;;;;;;;4.53;3.93;;;;;;;1.98;33.27;101259.03;10328247;28;20190;-85
2022/03/08 04:42:16;;;;;;;7.73;4.60;;;;;;;2.36;32.65;101257.88;10296870;28;20701;-86
2022/03/08 04:47:18;;;;;;;5.67;3.90;;;;;;;2.15;33.34;101248.56;10296310;28;20210;-87
2022/03/08 04:52:21;;;;;;;5.83;4.70;;;;;;;1.58;34.06;101253.13;10304805;28;20198;-84
2022/03/08 04:57:23;;;;;;;6.73;4.87;;;;;;;1.61;34.22;101253.44;10335962;28;20222;-86
2022/03/08 05:02:25;;;;;;;6.87;4.23;;;;;;;1.76;33.83;101258.31;10310982;28;20616;-84
2022/03/08 05:07:27;;;;;;;6.23;5.27;;;;;;;1.43;34.20;101254.66;10346748;28;20209;-83
2022/03/08 05:12:30;;;;;;;6.67;4.50;;;;;;;1.88;33.75;101240.31;10334104;28;20252;-83
2022/03/08 05:17:33;;;;;;;5.40;4.00;;;;;;;1.64;34.36;101254.84;10342073;28;20209;-85
2022/03/08 05:22:35;;;;;;;4.70;3.83;;;;;;;1.37;34.55;101254.91;10373796;28;20253;-83
2022/03/08 05:27:38;;;;;;;5.57;4.20;;;;;;;0.64;36.20;101257.16;10322941;28;20241;-85
2022/03/08 05:32:40;;;;;;;4.67;3.73;;;;;;;0.14;37.10;101255.34;10295238;28;20487;-86
2022/03/08 05:37:42;;;;;;;5.03;4.50;;;;;;;1.01;35.77;101250.88;10306438;28;20234;-84
2022/03/08 05:42:45;;;;;;;14.27;4.43;;;;;;;1.24;35.20;101256.16;10294208;28;20320;-84
2022/03/08 05:47:48;;;;;;;7.17;5.03;;;;;;;1.11;35.73;101260.22;10279641;28;20238;-86
2022/03/08 05:52:51;;;;;;;7.70;4.10;;;;;;;1.53;34.86;101254.75;10322456;28;20604;-84
2022/03/08 05:57:53;;;;;;;6.97;4.47;;;;;;;0.79;36.02;101251.78;10327816;28;20622;-83
2022/03/08 06:02:56;;;;;;;6.47;4.50;;;;;;;1.02;35.30;101250.63;10280510;28;20307;-84
2022/03/08 06:07:58;;;;;;;6.00;4.10;;;;;;;0.49;36.51;101255.00;10327491;28;20214;-85
2022/03/08 06:13:00;;;;;;;7.53;4.40;;;;;;;1.16;35.76;101256.63;10339099;28;20202;-85
2022/03/08 06:18:03;;;;;;;6.53;4.50;;;;;;;1.12;35.70;101263.84;10335478;28;20198;-85
2022/03/08 06:23:06;;;;;;;8.93;5.00;;;;;;;1.38;35.08;101264.94;10335024;28;20233;-85
2022/03/08 06:28:08;;;;;;;6.37;4.80;;;;;;;1.30;34.76;101268.19;10319733;28;20256;-84
2022/03/08 06:33:10;;;;;;;7.63;4.73;;;;;;;1.01;35.32;101284.28;10325471;28;20210;-85
2022/03/08 06:38:13;;;;;;;6.87;5.07;;;;;;;1.04;35.54;101289.34;10328114;28;20206;-85
2022/03/08 06:43:15;;;;;;;6.00;4.00;;;;;;;1.51;35.06;101297.94;10321412;28;20222;-84
2022/03/08 06:48:17;;;;;;;7.00;4.77;;;;;;;1.03;36.16;101304.38;10341648;28;20217;-86
2022/03/08 06:53:19;;;;;;;7.33;5.00;;;;;;;1.22;35.47;101297.38;10347492;28;20206;-85
2022/03/08 06:58:22;;;;;;;8.40;5.67;;;;;;;1.43;35.12;101298.41;10345650;28;20213;-86
2022/03/08 07:03:24;;;;;;;10.60;5.30;;;;;;;1.28;35.74;101303.81;10359002;28;20226;-86
2022/03/08 07:08:27;;;;;;;10.17;5.50;;;;;;;1.67;35.10;101301.69;10331222;28;20202;-86
2022/03/08 07:13:29;;;;;;;14.47;6.07;;;;;;;1.72;34.96;101298.97;10323840;28;20264;-86
2022/03/08 07:18:31;;;;;;;13.00;5.87;;;;;;;1.40;35.62;101304.50;10375797;28;20272;-86
2022/03/08 07:23:34;;;;;;;9.10;5.83;;;;;;;1.81;35.24;101300.97;10332346;28;20732;-85
2022/03/08 07:28:36;;;;;;;9.47;5.20;;;;;;;2.29;34.25;101301.09;10300267;28;20210;-86
2022/03/08 07:33:38;;;;;;;6.90;4.73;;;;;;;1.82;34.71;101296.25;10327575;28;20558;-86
2022/03/08 07:38:41;;;;;;;7.50;6.03;;;;;;;2.08;34.67;101295.38;10332350;28;20264;-86
2022/03/08 07:43:43;;;;;;;8.37;5.47;;;;;;;2.21;34.27;101297.69;10319873;28;20256;-86
2022/03/08 07:48:45;;;;;;;5.37;4.10;;;;;;;2.46;33.43;101285.84;10328207;28;20217;-85
2022/03/08 07:54:08;;;;;;;6.00;3.97;;;;;;;2.59;32.27;101290.09;10349069;28;20206;-85
2022/03/08 07:59:11;;;;;;;7.50;3.67;;;;;;;2.69;31.61;101287.38;10295719;28;20263;-85
2022/03/08 08:04:13;;;;;;;6.10;3.87;;;;;;;2.53;31.71;101292.03;10311757;28;20374;-84
2022/03/08 08:09:15;;;;;;;3.73;3.23;;;;;;;2.96;30.77;101279.63;10309266;28;20213;-85
2022/03/08 08:14:18;;;;;;;3.97;3.43;;;;;;;3.57;29.97;101285.41;10336595;28;20275;-85
2022/03/08 08:19:20;;;;;;;5.20;3.87;;;;;;;3.80;29.89;101294.38;10352849;28;20490;-85
2022/03/08 08:24:23;;;;;;;7.27;3.43;;;;;;;3.64;30.30;101296.31;10323641;28;20237;-85
2022/03/08 08:29:25;;;;;;;7.47;3.73;;;;;;;3.84;30.09;101293.53;10311117;28;20209;-85
2022/03/08 08:34:27;;;;;;;4.23;3.60;;;;;;;3.99;29.33;101292.69;10302565;28;20496;-86
2022/03/08 08:39:30;;;;;;;5.40;3.73;;;;;;;3.43;30.20;101289.88;10318548;28;20202;-85
2022/03/08 08:44:32;;;;;;;15.63;4.00;;;;;;;4.54;28.83;101282.53;10312090;28;20252;-85
2022/03/08 08:49:35;;;;;;;6.80;3.97;;;;;;;4.36;28.95;101286.75;10301369;28;20599;-86
2022/03/08 08:54:38;;;;;;;3.93;3.53;;;;;;;3.87;29.63;101278.13;10302137;28;20254;-86
2022/03/08 08:59:40;;;;;;;4.57;3.73;;;;;;;3.62;29.40;101270.56;10301546;28;20198;-85
2022/03/08 09:04:43;;;;;;;7.17;3.80;;;;;;;4.77;28.99;101267.06;10302466;28;20297;-86
2022/03/08 09:09:47;;;;;;;6.10;3.33;;;;;;;4.80;28.11;101264.50;10327635;28;20206;-85
2022/03/08 09:14:49;;;;;;;6.00;3.40;;;;;;;5.23;27.56;101245.22;10321098;28;20264;-85
2022/03/08 09:19:51;;;;;;;4.73;3.20;;;;;;;5.82;26.70;101231.88;10322444;28;20483;-85
2022/03/08 09:24:53;;;;;;;7.33;4.03;;;;;;;5.94;27.06;101228.66;10308469;28;20234;-86
2022/03/08 09:29:56;;;;;;;5.47;3.87;;;;;;;5.83;26.61;101227.94;10322477;28;20245;-86
2022/03/08 09:34:59;;;;;;;8.27;3.43;;;;;;;5.00;26.79;101225.19;10322135;28;20495;-83
2022/03/08 09:40:03;;;;;;;4.93;3.10;;;;;;;5.65;26.03;101231.47;10330978;28;20240;-84
2022/03/08 09:45:06;;;;;;;6.47;2.93;;;;;;;6.09;25.89;101214.47;10308221;28;20627;-86
2022/03/08 09:50:12;;;;;;;6.97;2.93;;;;;;;5.86;25.42;101231.28;10324799;28;20221;-85
2022/03/08 09:55:21;;;;;;;11.37;4.03;;;;;;;5.02;26.56;101211.72;10319171;28;20202;-84
2022/03/08 10:00:24;;;;;;;6.53;3.33;;;;;;;5.86;25.48;101211.63;10340769;28;20204;-85
2022/03/08 10:05:37;;;;;;;4.13;2.67;;;;;;;5.93;25.19;101206.53;10300224;28;20230;-84
2022/03/08 10:10:53;;;;;;;8.27;3.30;;;;;;;6.29;25.03;101190.97;10298787;28;20257;-83
2022/03/08 10:16:15;;;;;;;4.47;3.00;;;;;;;5.61;24.81;101190.22;10313714;28;20657;-84
2022/03/08 10:21:26;;;;;;;3.40;3.00;;;;;;;5.81;24.01;101179.69;10341033;28;20237;-85
2022/03/08 10:26:29;;;;;;;7.47;3.40;;;;;;;6.53;24.55;101165.66;10327480;28;20645;-84
2022/03/08 10:31:32;;;;;;;6.40;2.93;;;;;;;6.47;24.55;101170.50;10315492;28;20214;-84
2022/03/08 10:36:37;;;;;;;13.97;3.73;;;;;;;6.89;23.61;101157.59;10231914;28;20235;-84
2022/03/08 10:41:47;;;;;;;4.43;3.30;;;;;;;6.38;24.54;101151.81;10242254;28;20404;-85
2022/03/08 10:47:13;;;;;;;4.57;2.87;;;;;;;6.61;23.76;101131.28;10241538;29;20436;-84
2022/03/08 10:52:15;;;;;;;4.20;2.87;;;;;;;7.38;22.21;101122.50;10233333;29;20211;-85
2022/03/08 10:57:18;;;;;;;4.43;2.37;;;;;;;7.08;23.02;101113.47;10236463;29;20512;-84
2022/03/08 11:02:51;;;;;;;6.50;2.80;;;;;;;6.36;23.37;101120.38;10245978;29;20588;-84
2022/03/08 11:07:55;;;;;;;5.07;2.97;;;;;;;6.57;23.66;101101.28;10253352;29;20493;-84
2022/03/08 11:12:58;;;;;;;4.17;3.10;;;;;;;7.46;22.38;101097.34;10239743;28;20219;-83
2022/03/08 11:18:02;;;;;;;3.50;3.10;;;;;;;7.40;22.78;101092.09;10260407;28;20210;-84
2022/03/08 11:23:05;;;;;;;3.37;2.47;;;;;;;8.18;21.61;101080.72;10240210;29;20290;-85
2022/03/08 11:28:08;;;;;;;4.38;2.70;;;;;;;7.13;22.52;101081.59;10240124;29;20211;-85
2022/03/08 11:33:29;;;;;;;2.20;2.00;;;;;;;8.39;21.52;101064.22;10256286;28;20207;-85
2022/03/08 11:38:31;;;;;;;3.57;2.57;;;;;;;7.37;21.66;101070.19;10240285;29;20246;-85
2022/03/08 11:43:46;;;;;;;2.97;2.50;;;;;;;7.74;21.71;101063.66;10246837;29;20328;-83
2022/03/08 11:49:03;;;;;;;7.20;2.17;;;;;;;8.39;20.40;101047.31;10239918;29;20500;-84
2022/03/08 11:54:08;;;;;;;3.67;2.10;;;;;;;8.86;20.38;101050.75;10255960;28;20203;-83
2022/03/08 11:59:10;;;;;;;4.10;2.00;;;;;;;9.29;19.14;101043.44;10244353;28;20207;-85
2022/03/08 12:04:17;;;;;;;2.40;2.20;;;;;;;9.17;19.51;101036.72;10244343;28;20242;-84
2022/03/08 12:09:22;;;;;;;5.07;2.27;;;;;;;7.94;20.21;101047.16;10245954;29;20490;-84
2022/03/08 12:14:53;;;;;;;2.38;1.98;;;;;;;8.26;20.21;101032.13;10274266;28;20207;-84
2022/03/08 12:19:59;;;;;;;3.10;1.97;;;;;;;8.42;20.32;101035.41;10242632;28;20263;-84
2022/03/08 12:25:13;;;;;;;2.83;2.30;;;;;;;9.62;19.06;101023.34;10253114;29;20251;-85
2022/03/08 12:30:40;;;;;;;2.13;1.70;;;;;;;8.48;20.29;101017.22;10230444;29;20212;-84
2022/03/08 12:35:53;;;;;;;8.33;1.80;;;;;;;9.68;19.21;101010.78;10238752;29;20258;-84
2022/03/08 12:40:55;;;;;;;7.63;1.70;;;;;;;8.61;19.75;101002.25;10242041;29;20262;-84
2022/03/08 12:45:57;;;;;;;6.17;1.70;;;;;;;9.69;18.65;100989.88;10261714;29;20278;-85
2022/03/08 12:51:01;;;;;;;5.90;1.67;;;;;;;8.95;19.47;101009.34;10257955;29;20254;-84
2022/03/08 12:56:12;;;;;;;3.60;1.90;;;;;;;9.35;18.65;100999.78;10245269;29;20208;-85
2022/03/08 13:01:15;;;;;;;3.20;1.90;;;;;;;9.70;18.57;100995.16;10248456;29;20203;-85
2022/03/08 13:06:17;;;;;;;5.30;1.90;;;;;;;10.12;18.31;100983.47;10237669;29;20243;-86
2022/03/08 13:11:20;;;;;;;2.43;1.67;;;;;;;10.45;18.37;100984.69;10242669;29;20232;-85
2022/03/08 13:16:28;;;;;;;6.85;2.15;;;;;;;10.22;18.02;100971.88;10232615;29;20274;-85
2022/03/08 13:21:30;;;;;;;4.03;1.90;;;;;;;9.31;18.59;100966.94;10228017;29;20548;-85
2022/03/08 13:26:53;;;;;;;2.23;1.30;;;;;;;10.54;17.48;100960.09;10240424;29;20243;-86
2022/03/08 13:31:56;;;;;;;4.60;1.67;;;;;;;10.86;17.03;100961.56;10243273;29;20274;-85
2022/03/08 13:36:58;;;;;;;3.17;1.87;;;;;;;10.03;17.46;100967.34;10230886;29;20250;-83
2022/03/08 13:42:06;;;;;;;4.37;1.30;;;;;;;9.34;18.40;100967.09;10239056;29;20238;-83
2022/03/08 13:47:24;;;;;;;4.47;1.30;;;;;;;10.53;17.21;100961.25;10237657;29;20289;-86
2022/03/08 13:52:27;;;;;;;5.95;1.73;;;;;;;9.65;17.83;100949.31;10226726;29;20251;-84
2022/03/08 13:57:30;;;;;;;3.43;1.90;;;;;;;9.85;18.08;100948.69;10228034;29;20512;-84
2022/03/08 14:02:35;;;;;;;1.70;1.27;;;;;;;10.66;17.18;100946.13;10217006;29;20199;-85
2022/03/08 14:07:40;;;;;;;1.97;1.70;;;;;;;9.46;17.85;100957.16;10241172;29;20251;-84
2022/03/08 14:12:43;;;;;;;2.73;1.70;;;;;;;10.51;17.02;100948.63;10242247;29;20224;-84
2022/03/08 14:17:49;;;;;;;1.92;1.73;;;;;;;10.66;17.41;100954.59;10246001;29;20203;-84
2022/03/08 14:23:08;;;;;;;7.32;1.42;;;;;;;10.90;17.11;100951.22;10235712;29;20283;-85
2022/03/08 14:28:11;;;;;;;3.25;1.77;;;;;;;10.37;17.25;100951.56;10227852;29;20580;-85
2022/03/08 14:33:14;;;;;;;1.63;1.53;;;;;;;10.03;17.73;100950.41;10228494;29;20203;-84
2022/03/08 14:38:16;;;;;;;1.70;1.33;;;;;;;9.60;17.95;100940.97;10229587;29;20211;-86
2022/03/08 14:43:18;;;;;;;2.17;1.80;;;;;;;10.27;17.29;100951.91;10244504;29;20258;-85
2022/03/08 14:48:21;;;;;;;1.90;1.73;;;;;;;10.22;17.68;100947.28;10227595;29;20590;-85
2022/03/08 14:53:24;;;;;;;2.97;1.97;;;;;;;9.89;17.72;100952.53;10244253;29;20262;-86
2022/03/08 14:58:27;;;;;;;4.97;1.73;;;;;;;10.52;17.51;100956.78;10246426;28;20203;-85
2022/03/08 15:03:29;;;;;;;5.93;2.53;;;;;;;10.51;17.47;100960.75;10234897;29;20435;-85
2022/03/08 15:08:32;;;;;;;2.20;2.00;;;;;;;9.50;18.50;100946.91;10241429;29;20345;-84
2022/03/08 15:13:34;;;;;;;6.88;2.38;;;;;;;9.81;18.05;100947.72;10233714;29;20253;-84
2022/03/08 15:18:36;;;;;;;2.90;2.15;;;;;;;10.53;17.59;100940.63;10236526;29;20222;-84
2022/03/08 15:23:39;;;;;;;5.77;2.20;;;;;;;10.82;17.84;100937.13;10241460;28;20226;-82
2022/03/08 15:28:42;;;;;;;5.13;2.93;;;;;;;10.05;18.46;100942.44;10233191;29;20635;-85
2022/03/08 15:33:46;;;;;;;3.65;2.42;;;;;;;9.92;17.97;100937.75;10248580;29;20203;-85
2022/03/08 15:38:49;;;;;;;4.88;2.53;;;;;;;10.49;18.02;100934.81;10266877;28;20198;-85
2022/03/08 15:43:53;;;;;;;6.47;2.27;;;;;;;10.29;18.13;100922.16;10256498;28;20548;-85
2022/03/08 15:48:55;;;;;;;2.70;2.20;;;;;;;10.58;18.09;100927.19;10252328;29;20531;-82
2022/03/08 15:53:57;;;;;;;7.43;2.35;;;;;;;10.89;18.01;100926.09;10235322;29;20211;-83
2022/03/08 15:59:01;;;;;;;5.37;2.67;;;;;;;9.89;18.79;100935.59;10231918;29;20552;-83
2022/03/08 16:04:04;;;;;;;5.18;2.38;;;;;;;10.57;18.11;100930.34;10230737;29;20261;-85
2022/03/08 16:09:07;;;;;;;6.27;2.27;;;;;;;11.24;17.59;100927.69;10224712;29;20247;-84
2022/03/08 16:14:10;;;;;;;2.38;2.17;;;;;;;10.47;18.14;100933.50;10256717;28;20285;-84
2022/03/08 16:19:13;;;;;;;2.90;1.80;;;;;;;9.92;18.71;100926.47;10246337;28;20254;-82
2022/03/08 16:24:16;;;;;;;2.10;1.90;;;;;;;9.45;18.52;100927.28;10256939;28;20238;-82
2022/03/08 16:29:19;;;;;;;2.83;1.88;;;;;;;9.90;18.42;100933.59;10269882;28;20613;-83
2022/03/08 16:34:21;;;;;;;3.33;1.60;;;;;;;9.15;19.10;100924.19;10262457;28;20211;-82
2022/03/08 16:39:23;;;;;;;4.47;2.00;;;;;;;9.69;18.18;100916.44;10248506;28;20274;-84
2022/03/08 16:44:26;;;;;;;3.90;1.90;;;;;;;10.17;17.76;100922.00;10232301;29;20208;-84
2022/03/08 16:49:28;;;;;;;3.23;1.83;;;;;;;10.15;17.99;100929.13;10259509;28;20206;-83
2022/03/08 16:54:31;;;;;;;3.00;1.50;;;;;;;9.72;18.34;100927.91;10266037;28;20544;-82
2022/03/08 16:59:33;;;;;;;2.27;1.23;;;;;;;10.32;18.00;100926.31;10237416;29;20545;-83
2022/03/08 17:04:35;;;;;;;5.20;2.67;;;;;;;10.44;17.50;100932.16;10234681;29;20211;-83
2022/03/08 17:09:37;;;;;;;5.03;1.70;;;;;;;10.03;17.72;100941.09;10236254;29;20604;-83
2022/03/08 17:14:40;;;;;;;5.60;2.05;;;;;;;10.13;17.42;100937.09;10234453;28;20199;-83
2022/03/08 17:19:42;;;;;;;3.23;2.03;;;;;;;10.18;17.90;100951.09;10226072;28;20262;-83
2022/03/08 17:24:49;;;;;;;4.07;1.73;;;;;;;9.76;18.76;100956.31;10248414;28;20285;-84
2022/03/08 17:29:52;;;;;;;4.07;1.83;;;;;;;10.04;18.38;100957.72;10229242;29;20528;-82
2022/03/08 17:34:55;;;;;;;5.47;2.23;;;;;;;9.92;18.64;100951.88;10260235;28;20231;-84
2022/03/08 17:39:57;;;;;;;2.73;1.90;;;;;;;9.80;18.51;100964.97;10242891;29;20254;-83
2022/03/08 17:45:00;;;;;;;5.83;2.20;;;;;;;9.84;19.06;100968.78;10275521;28;20230;-85
2022/03/08 17:50:05;;;;;;;4.63;2.17;;;;;;;9.57;19.67;100973.50;10266959;28;20270;-85
2022/03/08 17:55:11;;;;;;;3.57;2.00;;;;;;;9.22;19.58;100980.97;10237744;29;20195;-85
2022/03/08 18:00:14;;;;;;;3.47;2.23;;;;;;;9.22;19.26;100982.97;10244870;28;20276;-85
2022/03/08 18:05:37;;;;;;;6.73;2.90;;;;;;;8.93;20.22;100991.91;10252470;28;20270;-86
2022/03/08 18:10:49;;;;;;;4.83;2.43;;;;;;;9.09;19.91;101001.63;10242185;28;20248;-87
2022/03/08 18:15:51;;;;;;;6.57;3.07;;;;;;;9.12;20.54;100998.19;10229902;29;20243;-87
2022/03/08 18:20:54;;;;;;;4.87;2.50;;;;;;;8.80;20.86;101001.25;10231127;28;20457;-89
2022/03/08 18:26:23;;;;;;;3.80;2.70;;;;;;;8.44;20.80;100999.28;10235695;29;20313;-85
2022/03/08 18:31:25;;;;;;;4.33;2.67;;;;;;;8.26;21.16;101012.41;10249383;28;20235;-85
2022/03/08 18:36:28;;;;;;;4.00;2.60;;;;;;;8.47;21.08;101015.56;10236864;28;20223;-86
2022/03/08 18:41:33;;;;;;;4.03;3.00;;;;;;;8.32;21.45;101027.19;10240497;28;20203;-87
2022/03/08 18:46:35;;;;;;;5.70;3.33;;;;;;;8.31;22.21;101017.06;10229816;28;20239;-85
2022/03/08 18:51:39;;;;;;;7.53;3.90;;;;;;;8.32;21.52;101021.53;10207409;29;20254;-85
2022/03/08 18:56:50;;;;;;;7.90;4.13;;;;;;;8.47;21.82;101021.19;10217245;29;20207;-91
2022/03/08 19:01:52;;;;;;;6.87;3.57;;;;;;;8.63;22.10;101025.31;10236319;28;20216;-88
2022/03/08 19:06:55;;;;;;;4.87;3.50;;;;;;;8.28;21.59;101024.16;10224664;29;20266;-90
2022/03/08 19:11:59;;;;;;;6.20;3.77;;;;;;;8.03;22.46;101037.97;10219361;28;20266;-90
2022/03/08 19:17:04;;;;;;;9.67;3.80;;;;;;;7.63;22.71;101051.69;10217311;29;20211;-90
2022/03/08 19:22:06;;;;;;;6.53;4.30;;;;;;;7.30;23.61;101058.53;10220089;28;20207;-88
2022/03/08 19:27:09;;;;;;;7.07;4.10;;;;;;;7.58;23.15;101066.72;10234268;29;20239;-89
2022/03/08 19:32:13;;;;;;;7.40;4.27;;;;;;;7.16;24.45;101076.19;10219321;29;20208;-88
2022/03/08 19:37:18;;;;;;;8.63;5.60;;;;;;;7.22;24.31;101069.34;10219427;28;20203;-90
2022/03/08 19:42:23;;;;;;;6.97;5.20;;;;;;;6.91;25.19;101071.00;10234813;29;20271;-89
2022/03/08 19:47:25;;;;;;;6.37;4.87;;;;;;;6.92;25.06;101069.84;10237566;28;20235;-89
2022/03/08 19:52:28;;;;;;;8.93;5.23;;;;;;;7.13;24.96;101070.34;10234784;28;20226;-89
2022/03/08 19:57:31;;;;;;;9.30;5.67;;;;;;;7.02;24.53;101071.66;10227955;28;20240;-90
2022/03/08 20:02:35;;;;;;;9.23;5.73;;;;;;;6.42;25.13;101075.09;10245122;29;20572;-90
2022/03/08 20:07:38;;;;;;;7.47;5.47;;;;;;;6.84;24.95;101073.38;10226212;29;20887;-90
2022/03/08 20:12:40;;;;;;;7.63;5.53;;;;;;;6.76;25.24;101072.06;10234835;28;20207;-89
2022/03/08 20:17:42;;;;;;;9.60;5.90;;;;;;;6.43;25.89;101073.94;10229106;29;20239;-91
2022/03/08 20:22:44;;;;;;;7.70;5.10;;;;;;;6.45;25.85;101082.06;10241014;28;20255;-88
2022/03/08 20:27:47;;;;;;;8.10;5.80;;;;;;;6.20;26.17;101088.84;10232778;28;20243;-89
2022/03/08 20:32:49;;;;;;;8.77;5.93;;;;;;;6.22;26.20;101083.78;10237329;28;20317;-88
2022/03/08 20:37:53;;;;;;;8.77;5.37;;;;;;;5.85;26.96;101089.28;10241046;28;20208;-90
2022/03/08 20:42:57;;;;;;;8.77;5.40;;;;;;;5.79;27.07;101096.94;10233830;28;20219;-87
2022/03/08 20:48:00;;;;;;;12.70;7.53;;;;;;;5.56;27.80;101104.16;10227424;29;20263;-89
2022/03/08 20:53:03;;;;;;;25.20;12.80;;;;;;;5.33;27.82;101113.34;10235040;29;20211;-88
2022/03/08 20:58:05;;;;;;;21.13;11.53;;;;;;;5.10;28.57;101113.00;10235954;28;20630;-88
2022/03/08 21:03:07;;;;;;;16.53;9.50;;;;;;;4.98;28.58;101120.09;10230032;29;20869;-88
2022/03/08 21:08:10;;;;;;;16.07;9.00;;;;;;;4.81;28.92;101105.66;10228766;29;20255;-88
2022/03/08 21:13:13;;;;;;;17.93;9.90;;;;;;;4.54;29.26;101118.13;10217173;29;20211;-89
2022/03/08 21:18:15;;;;;;;20.70;9.20;;;;;;;5.14;28.52;101126.44;10242774;28;20266;-88
2022/03/08 21:23:20;;;;;;;11.93;7.47;;;;;;;4.91;28.67;101120.41;10220856;28;20307;-89
2022/03/08 21:28:23;;;;;;;11.60;6.90;;;;;;;5.06;28.88;101139.94;10242024;29;20404;-88
2022/03/08 21:33:25;;;;;;;10.67;6.67;;;;;;;5.02;28.28;101138.03;10243088;28;20462;-88
2022/03/08 21:38:28;;;;;;;11.47;7.67;;;;;;;4.92;28.61;101133.31;10244269;28;20266;-88
2022/03/08 21:43:30;;;;;;;10.87;6.93;;;;;;;4.74;28.74;101142.41;10240002;28;20210;-88
2022/03/08 21:48:32;;;;;;;8.60;5.83;;;;;;;4.75;28.51;101144.09;10241144;28;20231;-89
2022/03/08 21:53:35;;;;;;;10.20;6.23;;;;;;;4.53;28.56;101147.28;10234115;29;20203;-88
2022/03/08 21:58:37;;;;;;;8.70;5.50;;;;;;;4.84;28.62;101155.50;10239374;28;20211;-88
2022/03/08 22:03:41;;;;;;;8.37;5.33;;;;;;;4.65;28.96;101156.16;10219965;29;20219;-88
2022/03/08 22:08:44;;;;;;;10.87;5.77;;;;;;;4.44;29.42;101145.34;10239148;28;20238;-88
2022/03/08 22:13:46;;;;;;;9.43;6.00;;;;;;;4.09;29.96;101155.56;10241776;29;20215;-88
2022/03/08 22:18:49;;;;;;;11.90;6.33;;;;;;;4.19;29.72;101146.28;10248240;28;20227;-90
2022/03/08 22:23:51;;;;;;;10.63;6.77;;;;;;;3.78;30.46;101156.75;10239361;28;20264;-88
2022/03/08 22:28:54;;;;;;;10.50;6.70;;;;;;;4.05;30.29;101151.66;10220540;28;20573;-89
2022/03/08 22:33:56;;;;;;;11.13;5.93;;;;;;;4.00;30.08;101160.03;10235918;28;20207;-88
2022/03/08 22:38:58;;;;;;;10.97;6.00;;;;;;;3.73;30.36;101165.16;10235992;28;20204;-87
2022/03/08 22:44:00;;;;;;;9.60;6.67;;;;;;;3.88;30.37;101167.91;10240354;28;20251;-87
2022/03/08 22:49:03;;;;;;;13.07;6.53;;;;;;;3.69;30.77;101182.50;10234311;28;20274;-87
2022/03/08 22:54:05;;;;;;;10.33;6.50;;;;;;;3.63;30.81;101166.00;10232373;29;20667;-87
2022/03/08 22:59:09;;;;;;;11.43;5.97;;;;;;;3.64;30.61;101174.09;10250430;28;20208;-86
2022/03/08 23:04:13;;;;;;;11.80;6.80;;;;;;;3.66;30.78;101169.06;10230377;29;20215;-87
2022/03/08 23:09:15;;;;;;;14.33;7.00;;;;;;;3.71;30.93;101175.78;10228429;29;20246;-88
2022/03/08 23:14:18;;;;;;;9.77;6.40;;;;;;;3.43;31.20;101183.63;10245265;29;20230;-88
2022/03/08 23:19:20;;;;;;;11.97;5.97;;;;;;;3.36;31.41;101180.25;10235061;28;20207;-88
2022/03/08 23:24:23;;;;;;;10.57;6.70;;;;;;;2.87;31.77;101174.31;10235052;28;20235;-87
2022/03/08 23:29:25;;;;;;;11.27;5.73;;;;;;;3.29;31.45;101162.97;10234678;28;20223;-87
2022/03/08 23:34:27;;;;;;;7.53;5.97;;;;;;;3.33;31.53;101172.47;10257994;28;20203;-87